Kholm, Russia
Current Conditions -  °F | °C
As of 5:00 PM on Saturday 22 Nov 2014 (Local Time) from ULOO Reporting Station
Moderate Snow Moderate Snow  
Wind Chill: 28°   Ceiling: 400
Heat Index: 32°   Visibility: 1.1mi
Dew Point: 32°   Wind: 4mph
Humidity: 100%   Direction: 170°S
Pressure: 30.3"   Gusts: NA
Location:  57.15°N, 31.18°E
Report Text: ULOO 221400Z 17002MPS 1900 SNRA BR OVC004 00/M00 Q1026 19590245TEMPO 0700 FG VV003 RMK QBB140 OBST OBSC QFE765
Loading
Personal Weather Stations






























Interactive Weather Map New forecast layout! Learn more

10-Day Weather Forecast

Advertisements
Track Severe Weather on mobile